Time;durP1;ratioP1;P1;durP2;ratioP2;P2;SDS_P1;SDS_P2;PMS_P1;PMS_P2;Temp;Humidity;BMP_temperature;BMP_pressure;BME280_temperature;BME280_humidity;BME280_pressure;Samples;Min_cycle;Max_cycle;Signal;HPM_P1;HPM_P2
2024/04/17 00:02:09;;;;;;;1.17;1.00;;;;;;;11.63;56.75;96555.41;5441026;26;20278;-70
2024/04/17 00:04:34;;;;;;;1.30;0.93;;;;;;;11.70;56.84;96560.78;5442798;26;20328;-73
2024/04/17 00:07:00;;;;;;;1.97;1.37;;;;;;;11.63;56.62;96554.56;5425344;26;20282;-74
2024/04/17 00:09:25;;;;;;;2.03;0.90;;;;;;;11.61;56.82;96552.13;5445023;26;20369;-69
2024/04/17 00:11:51;;;;;;;1.10;0.90;;;;;;;11.51;55.91;96547.09;5440133;26;20237;-72
2024/04/17 00:14:16;;;;;;;1.87;1.10;;;;;;;11.47;55.34;96547.63;5439976;26;20357;-69
2024/04/17 00:16:42;;;;;;;2.50;0.87;;;;;;;11.35;55.28;96547.19;5437463;26;20235;-71
2024/04/17 00:19:07;;;;;;;1.20;0.83;;;;;;;11.31;55.33;96551.16;5445754;26;20285;-71
2024/04/17 00:21:33;;;;;;;1.03;0.93;;;;;;;11.21;54.99;96549.56;5440232;26;20810;-71
2024/04/17 00:23:58;;;;;;;1.10;0.73;;;;;;;11.21;55.07;96546.94;5445890;26;20333;-72
2024/04/17 00:26:24;;;;;;;1.50;0.73;;;;;;;11.29;54.78;96545.28;5437350;26;20449;-70
2024/04/17 00:28:49;;;;;;;0.90;0.70;;;;;;;11.35;54.50;96548.03;5439175;26;20628;-72
2024/04/17 00:31:15;;;;;;;1.33;0.90;;;;;;;11.31;54.98;96535.44;5443675;26;20341;-73
2024/04/17 00:33:40;;;;;;;0.97;0.80;;;;;;;11.27;55.34;96544.63;5447328;26;20235;-74
2024/04/17 00:36:06;;;;;;;1.20;0.77;;;;;;;11.22;55.84;96543.34;5442013;26;20310;-70
2024/04/17 00:38:31;;;;;;;1.23;0.87;;;;;;;11.27;55.48;96542.84;5447386;26;20239;-69
2024/04/17 00:40:57;;;;;;;4.40;0.70;;;;;;;11.30;55.63;96536.41;5446983;26;20339;-72
2024/04/17 00:43:22;;;;;;;1.40;0.90;;;;;;;11.15;56.50;96534.53;5435453;26;20368;-69
2024/04/17 00:45:48;;;;;;;1.13;0.73;;;;;;;11.28;56.92;96535.78;5413796;26;21033;-70
2024/04/17 00:48:14;;;;;;;1.13;0.90;;;;;;;11.29;56.31;96529.53;5471787;26;20337;-69
2024/04/17 00:50:41;;;;;;;1.53;1.07;;;;;;;11.22;56.96;96538.09;5447395;26;20627;-72
2024/04/17 00:53:08;;;;;;;1.30;0.80;;;;;;;11.29;56.34;96532.16;5447378;26;20456;-73
2024/04/17 00:55:35;;;;;;;1.00;0.70;;;;;;;11.27;56.24;96528.88;5448213;26;20456;-73
2024/04/17 00:58:01;;;;;;;1.10;0.80;;;;;;;11.28;56.39;96520.84;5443816;26;20453;-71
2024/04/17 01:00:27;;;;;;;1.40;0.90;;;;;;;11.25;56.30;96528.25;5447627;26;20812;-69
2024/04/17 01:02:52;;;;;;;1.33;1.23;;;;;;;11.28;56.11;96525.28;5444414;26;20452;-73
2024/04/17 01:05:18;;;;;;;1.93;0.90;;;;;;;11.29;56.68;96526.91;5446412;26;20262;-71
2024/04/17 01:07:43;;;;;;;1.00;0.80;;;;;;;11.33;56.78;96522.97;5446151;26;20299;-70
2024/04/17 01:10:08;;;;;;;2.93;1.00;;;;;;;11.30;56.75;96524.09;5446047;26;20299;-71
2024/04/17 01:12:35;;;;;;;1.40;1.00;;;;;;;11.24;57.69;96529.22;5447345;26;20286;-71
2024/04/17 01:15:01;;;;;;;1.73;0.90;;;;;;;11.29;57.36;96529.53;5413737;26;20239;-69
2024/04/17 01:17:26;;;;;;;1.57;0.90;;;;;;;11.25;57.58;96520.38;5449619;26;20474;-69
2024/04/17 01:19:52;;;;;;;2.43;0.80;;;;;;;11.22;57.85;96532.03;5441093;26;20357;-69
2024/04/17 01:22:18;;;;;;;1.27;0.90;;;;;;;11.26;58.17;96517.59;5442775;26;20250;-70
2024/04/17 01:24:43;;;;;;;1.00;0.90;;;;;;;11.33;58.08;96529.00;5415109;26;20748;-70
2024/04/17 01:27:09;;;;;;;2.50;1.00;;;;;;;11.36;57.35;96527.84;5437163;26;20497;-68
2024/04/17 01:29:34;;;;;;;0.90;0.80;;;;;;;11.30;57.57;96520.69;5414562;26;20299;-69
2024/04/17 01:31:59;;;;;;;0.90;0.80;;;;;;;11.19;58.14;96533.22;5444386;26;20276;-71
2024/04/17 01:34:26;;;;;;;1.63;1.00;;;;;;;11.16;58.54;96517.81;5446559;26;20231;-69
2024/04/17 01:36:52;;;;;;;1.30;1.20;;;;;;;11.16;58.18;96517.81;5445572;26;20573;-71
2024/04/17 01:39:18;;;;;;;1.20;1.03;;;;;;;11.18;57.77;96515.84;5444661;26;20827;-69
2024/04/17 01:41:43;;;;;;;1.10;1.00;;;;;;;11.21;57.40;96512.84;5446745;26;20575;-69
2024/04/17 01:44:09;;;;;;;2.80;1.00;;;;;;;11.18;56.50;96515.84;5444132;26;20743;-72
2024/04/17 01:46:34;;;;;;;1.30;1.00;;;;;;;11.21;56.53;96520.72;5445928;26;20284;-71
2024/04/17 01:49:00;;;;;;;3.03;0.80;;;;;;;11.22;56.83;96508.44;5443462;26;20773;-69
2024/04/17 01:51:25;;;;;;;1.07;0.97;;;;;;;11.16;56.84;96512.56;5446219;26;20270;-69
2024/04/17 01:53:50;;;;;;;1.23;0.90;;;;;;;11.19;56.81;96517.47;5446093;26;20341;-70
2024/04/17 01:56:16;;;;;;;5.43;0.90;;;;;;;11.24;56.86;96514.31;5445825;26;20270;-69
2024/04/17 01:58:45;;;;;;;1.10;1.00;;;;;;;11.31;57.15;96507.38;5446224;26;20227;-69
2024/04/17 02:01:13;;;;;;;1.00;0.90;;;;;;;11.30;56.73;96513.63;5445617;26;20262;-70
2024/04/17 02:03:38;;;;;;;1.20;1.10;;;;;;;11.31;56.89;96517.06;5445881;26;20461;-72
2024/04/17 02:06:04;;;;;;;2.70;1.00;;;;;;;11.35;57.45;96513.09;5445583;26;20251;-69
2024/04/17 02:08:29;;;;;;;1.30;0.90;;;;;;;11.29;56.98;96517.22;5445681;26;20576;-70
2024/04/17 02:10:55;;;;;;;1.00;0.80;;;;;;;11.29;57.04;96521.66;5445839;26;20727;-71
2024/04/17 02:13:21;;;;;;;1.27;1.00;;;;;;;11.32;57.05;96516.88;5443910;26;20967;-69
2024/04/17 02:15:46;;;;;;;1.30;1.20;;;;;;;11.32;57.43;96511.66;5446573;26;20827;-69
2024/04/17 02:18:12;;;;;;;1.20;1.10;;;;;;;11.31;57.64;96515.25;5444224;26;20247;-70
2024/04/17 02:20:38;;;;;;;1.20;1.07;;;;;;;11.30;57.14;96520.69;5446015;26;20240;-69
2024/04/17 02:23:03;;;;;;;1.23;1.13;;;;;;;11.36;56.95;96525.22;5431293;26;20244;-69
2024/04/17 02:25:29;;;;;;;1.20;1.00;;;;;;;11.31;57.19;96517.06;5445776;26;20517;-69
2024/04/17 02:27:54;;;;;;;1.33;1.23;;;;;;;11.25;57.76;96526.44;5445155;26;20602;-70
2024/04/17 02:30:20;;;;;;;2.00;1.07;;;;;;;11.25;58.17;96525.63;5443139;26;20286;-71
2024/04/17 02:32:45;;;;;;;1.27;1.17;;;;;;;11.27;58.18;96523.66;5445910;26;20253;-70
2024/04/17 02:35:10;;;;;;;1.30;1.20;;;;;;;11.27;57.90;96519.22;5448356;26;20235;-70
2024/04/17 02:37:36;;;;;;;1.20;1.10;;;;;;;11.29;58.23;96527.72;5452289;26;20235;-71
2024/04/17 02:40:01;;;;;;;1.00;0.90;;;;;;;11.30;58.03;96515.44;5458656;26;20277;-69
2024/04/17 02:42:27;;;;;;;1.60;1.50;;;;;;;11.35;57.49;96519.16;5460002;26;20236;-71
2024/04/17 02:44:52;;;;;;;1.40;1.27;;;;;;;11.27;57.58;96515.78;5457772;26;20235;-69
2024/04/17 02:47:18;;;;;;;3.60;2.07;;;;;;;11.28;57.29;96520.84;5456479;26;20235;-68
2024/04/17 02:49:43;;;;;;;1.30;1.20;;;;;;;11.26;57.17;96525.47;5459185;26;20243;-70
2024/04/17 02:52:09;;;;;;;1.30;1.20;;;;;;;11.27;57.79;96528.88;5465448;26;20309;-71
2024/04/17 02:54:34;;;;;;;1.30;1.20;;;;;;;11.27;58.02;96528.88;5462480;26;20282;-71
2024/04/17 02:57:00;;;;;;;1.67;1.10;;;;;;;11.28;57.89;96528.72;5461374;26;20231;-72
2024/04/17 02:59:25;;;;;;;1.50;1.40;;;;;;;11.27;57.81;96529.72;5455811;26;20762;-69
2024/04/17 03:01:51;;;;;;;1.47;1.37;;;;;;;11.24;57.26;96540.56;5450827;26;20310;-69
2024/04/17 03:04:16;;;;;;;1.20;1.10;;;;;;;11.19;57.36;96537.63;5431928;26;20239;-69
2024/04/17 03:06:41;;;;;;;1.93;0.90;;;;;;;11.16;57.53;96543.19;5447806;26;20239;-70
2024/04/17 03:09:07;;;;;;;1.00;0.90;;;;;;;11.06;56.92;96540.81;5447831;26;20876;-70
2024/04/17 03:11:32;;;;;;;1.10;1.00;;;;;;;11.08;56.80;96546.72;5447431;26;20275;-69
2024/04/17 03:13:58;;;;;;;1.13;1.03;;;;;;;11.10;57.23;96544.72;5446988;26;20235;-69
2024/04/17 03:16:23;;;;;;;1.23;1.13;;;;;;;11.17;56.73;96544.84;5447858;26;20295;-69
2024/04/17 03:18:49;;;;;;;1.10;1.00;;;;;;;11.12;56.47;96542.72;5447306;26;20243;-68
2024/04/17 03:21:14;;;;;;;1.53;1.20;;;;;;;11.11;56.79;96535.06;5447212;26;20546;-69
2024/04/17 03:23:40;;;;;;;1.30;1.17;;;;;;;11.06;56.71;96543.44;5446749;26;20278;-69
2024/04/17 03:26:05;;;;;;;3.20;1.00;;;;;;;11.01;56.98;96540.50;5447551;26;20237;-68
2024/04/17 03:28:31;;;;;;;1.57;1.10;;;;;;;10.99;56.45;96550.34;5447318;26;20243;-70
2024/04/17 03:31:00;;;;;;;2.33;1.40;;;;;;;10.96;56.71;96550.69;5448551;26;20340;-69
2024/04/17 03:33:25;;;;;;;1.40;1.30;;;;;;;11.01;56.74;96557.06;5419869;26;20243;-69
2024/04/17 03:35:55;;;;;;;1.10;1.00;;;;;;;10.93;56.75;96558.91;5447310;26;20570;-71
2024/04/17 03:38:21;;;;;;;1.50;1.40;;;;;;;10.93;57.41;96566.75;5414385;26;20278;-69
2024/04/17 03:40:46;;;;;;;1.30;1.20;;;;;;;10.82;57.99;96568.78;5447686;26;20460;-71
2024/04/17 03:43:12;;;;;;;1.93;1.00;;;;;;;10.86;57.85;96566.63;5447136;26;20228;-70
2024/04/17 03:45:37;;;;;;;1.10;1.00;;;;;;;10.85;57.84;96568.41;5431525;26;20307;-71
2024/04/17 03:48:03;;;;;;;1.63;1.17;;;;;;;10.87;57.31;96581.38;5445959;26;20231;-72
2024/04/17 03:50:28;;;;;;;1.13;1.03;;;;;;;10.84;57.87;96574.63;5407445;26;20708;-72
2024/04/17 03:52:53;;;;;;;2.27;1.77;;;;;;;10.73;57.40;96575.84;5455447;26;20227;-71
2024/04/17 03:55:19;;;;;;;2.50;2.30;;;;;;;10.68;56.57;96577.34;5446312;26;20863;-71
2024/04/17 03:57:44;;;;;;;2.80;2.60;;;;;;;10.51;56.37;96581.81;5428890;26;20235;-71
2024/04/17 04:00:10;;;;;;;2.70;2.50;;;;;;;10.55;56.75;96591.78;5441930;26;20344;-70
2024/04/17 04:02:36;;;;;;;2.57;2.37;;;;;;;10.48;57.17;96587.38;5442416;26;20228;-72
2024/04/17 04:05:01;;;;;;;2.87;2.67;;;;;;;10.44;57.51;96581.66;5444957;26;20361;-69
2024/04/17 04:07:26;;;;;;;3.90;2.93;;;;;;;10.43;57.91;96590.50;5430467;26;21002;-71
2024/04/17 04:09:52;;;;;;;3.27;2.97;;;;;;;10.49;57.64;96584.56;5445535;26;20472;-70
2024/04/17 04:12:18;;;;;;;3.10;2.90;;;;;;;10.57;57.90;96591.59;5446191;26;20301;-69
2024/04/17 04:14:43;;;;;;;3.20;2.87;;;;;;;10.53;57.35;96591.13;5415650;26;20256;-69
2024/04/17 04:17:08;;;;;;;3.47;3.17;;;;;;;10.53;57.74;96585.88;5442355;26;20590;-68
2024/04/17 04:19:34;;;;;;;3.60;3.30;;;;;;;10.47;57.74;96591.78;5445404;26;20294;-69
2024/04/17 04:21:59;;;;;;;3.73;3.40;;;;;;;10.44;58.22;96592.13;5446138;26;20231;-69
2024/04/17 04:24:25;;;;;;;3.83;3.53;;;;;;;10.42;58.09;96594.09;5438668;26;20805;-71
2024/04/17 04:26:51;;;;;;;3.50;3.20;;;;;;;10.48;57.50;96592.59;5443479;26;20573;-69
2024/04/17 04:29:16;;;;;;;3.73;3.43;;;;;;;10.48;58.02;96595.22;5444834;26;20499;-69
2024/04/17 04:31:42;;;;;;;3.70;3.40;;;;;;;10.51;57.74;96595.69;5438992;26;20228;-69
2024/04/17 04:34:07;;;;;;;24.90;15.20;;;;;;;10.53;57.63;96592.91;5435082;26;20223;-70
2024/04/17 04:36:32;;;;;;;10.90;7.97;;;;;;;10.56;57.55;96588.16;5431272;26;20849;-71
2024/04/17 04:38:58;;;;;;;5.07;4.23;;;;;;;10.54;57.62;96598.00;5445860;26;20231;-71
2024/04/17 04:41:23;;;;;;;6.57;4.60;;;;;;;10.48;57.73;96598.66;5450989;26;20287;-71
2024/04/17 04:43:49;;;;;;;5.30;4.10;;;;;;;10.38;57.54;96592.78;5470908;26;20230;-72
2024/04/17 04:46:14;;;;;;;4.20;3.80;;;;;;;10.40;58.01;96606.53;5444860;26;20239;-73
2024/04/17 04:48:40;;;;;;;4.00;3.70;;;;;;;10.39;58.25;96600.50;5444947;26;20232;-71
2024/04/17 04:51:05;;;;;;;4.50;4.10;;;;;;;10.26;58.50;96603.56;5444579;26;20368;-73
2024/04/17 04:53:30;;;;;;;3.60;3.30;;;;;;;10.35;57.94;96603.53;5444226;26;20228;-72
2024/04/17 04:56:02;;;;;;;3.57;3.27;;;;;;;10.38;57.76;96608.50;5435376;26;20347;-71
2024/04/17 04:58:28;;;;;;;3.50;3.20;;;;;;;10.32;57.93;96604.69;5399227;26;20285;-72
2024/04/17 05:00:54;;;;;;;3.87;3.57;;;;;;;10.35;57.76;96608.78;5445919;26;20905;-68
2024/04/17 05:03:20;;;;;;;4.13;3.53;;;;;;;10.39;57.69;96597.03;5444703;26;20282;-70
2024/04/17 05:05:45;;;;;;;3.83;3.10;;;;;;;10.41;57.64;96603.72;5445259;26;20453;-71
2024/04/17 05:08:11;;;;;;;4.53;3.57;;;;;;;10.30;57.83;96607.50;5442331;26;20282;-68
2024/04/17 05:10:36;;;;;;;3.37;3.07;;;;;;;10.36;58.33;96610.41;5445621;26;20344;-70
2024/04/17 05:13:01;;;;;;;4.10;3.70;;;;;;;10.42;57.86;96610.59;5432562;26;20281;-71
2024/04/17 05:15:27;;;;;;;3.00;2.80;;;;;;;10.39;58.07;96604.88;5444936;26;20274;-69
2024/04/17 05:17:53;;;;;;;3.57;3.27;;;;;;;10.52;57.47;96612.25;5443531;26;20270;-71
2024/04/17 05:20:19;;;;;;;3.33;3.03;;;;;;;10.54;56.83;96618.13;5445569;26;20247;-70
2024/04/17 05:22:44;;;;;;;3.77;3.47;;;;;;;10.42;57.68;96617.66;5413877;26;20524;-70
2024/04/17 05:25:11;;;;;;;3.90;3.60;;;;;;;10.47;57.38;96617.16;5444055;26;20681;-69
2024/04/17 05:27:36;;;;;;;3.73;3.37;;;;;;;10.50;58.09;96616.84;5441952;26;20235;-71
2024/04/17 05:30:03;;;;;;;3.80;3.47;;;;;;;10.60;58.49;96618.28;5414194;26;20556;-70
2024/04/17 05:32:28;;;;;;;3.53;3.23;;;;;;;10.66;58.21;96626.47;5443084;26;20306;-71
2024/04/17 05:34:54;;;;;;;4.20;3.80;;;;;;;10.66;58.07;96622.03;5445905;26;20449;-70
2024/04/17 05:37:19;;;;;;;5.50;4.33;;;;;;;10.57;57.91;96623.03;5433084;26;20231;-70
2024/04/17 05:39:45;;;;;;;4.00;3.70;;;;;;;10.64;58.41;96623.19;5444676;26;20344;-70
2024/04/17 05:42:10;;;;;;;5.80;4.70;;;;;;;10.56;59.45;96624.03;5443243;26;20421;-70
2024/04/17 05:44:39;;;;;;;4.80;4.40;;;;;;;10.67;59.43;96630.72;5440233;26;20323;-70
2024/04/17 05:47:05;;;;;;;4.60;4.20;;;;;;;10.70;59.00;96628.59;5432795;26;20332;-69
2024/04/17 05:49:30;;;;;;;4.50;4.10;;;;;;;10.81;59.26;96629.22;5410724;26;20527;-69
2024/04/17 05:51:56;;;;;;;5.00;4.30;;;;;;;10.83;58.82;96633.31;5409518;26;20274;-70
2024/04/17 05:54:21;;;;;;;5.40;4.90;;;;;;;10.88;59.48;96630.19;5423945;26;20283;-72
2024/04/17 05:56:47;;;;;;;4.27;3.97;;;;;;;10.93;59.22;96635.72;5430331;26;20283;-70
2024/04/17 05:59:12;;;;;;;5.53;5.03;;;;;;;11.03;59.02;96643.41;5431479;26;20343;-69
2024/04/17 06:01:38;;;;;;;5.70;5.20;;;;;;;11.04;58.82;96635.38;5437216;26;20744;-71
2024/04/17 06:04:03;;;;;;;5.90;5.30;;;;;;;11.02;58.21;96641.78;5446362;26;20911;-70
2024/04/17 06:06:29;;;;;;;5.63;4.90;;;;;;;10.99;58.87;96644.72;5439404;26;20236;-71
2024/04/17 06:08:54;;;;;;;7.77;5.90;;;;;;;11.03;58.90;96646.03;5444219;26;20303;-69
2024/04/17 06:11:19;;;;;;;6.00;5.40;;;;;;;11.07;58.64;96655.22;5441651;26;20742;-69
2024/04/17 06:13:45;;;;;;;6.00;5.40;;;;;;;11.02;58.96;96647.00;5437748;26;20231;-69
2024/04/17 06:16:10;;;;;;;5.97;5.37;;;;;;;11.06;58.72;96653.56;5430849;26;20231;-72
2024/04/17 06:18:36;;;;;;;6.00;5.40;;;;;;;11.07;58.62;96647.34;5441488;26;20307;-71
2024/04/17 06:21:01;;;;;;;8.73;6.10;;;;;;;11.11;58.64;96660.94;5443450;26;20280;-70
2024/04/17 06:23:27;;;;;;;7.10;6.40;;;;;;;11.12;58.56;96658.13;5438325;26;20362;-72
2024/04/17 06:25:52;;;;;;;6.27;5.67;;;;;;;11.12;58.39;96659.94;5434469;26;20251;-71
2024/04/17 06:28:18;;;;;;;6.13;5.53;;;;;;;11.13;58.00;96659.75;5426042;26;20228;-70
2024/04/17 06:30:43;;;;;;;6.90;5.17;;;;;;;11.15;58.13;96657.78;5445222;26;20820;-72
2024/04/17 06:33:09;;;;;;;6.90;6.30;;;;;;;11.17;58.45;96668.09;5430712;26;20329;-72
2024/04/17 06:35:35;;;;;;;6.60;6.00;;;;;;;11.23;58.54;96659.56;5434069;26;20351;-71
2024/04/17 06:38:01;;;;;;;6.60;5.63;;;;;;;11.29;58.51;96663.31;5445088;26;20236;-71
2024/04/17 06:40:26;;;;;;;6.10;5.47;;;;;;;11.29;58.29;96664.13;5434101;26;20505;-72
2024/04/17 06:42:52;;;;;;;6.27;5.67;;;;;;;11.36;58.32;96665.09;5444649;26;20231;-73
2024/04/17 06:45:17;;;;;;;6.83;5.57;;;;;;;11.37;58.04;96665.91;5444373;26;20286;-70
2024/04/17 06:47:45;;;;;;;5.63;5.13;;;;;;;11.36;57.99;96667.72;5442214;26;20243;-70
2024/04/17 06:50:11;;;;;;;6.37;5.77;;;;;;;11.31;57.90;96671.84;5440447;26;20235;-71
2024/04/17 06:52:36;;;;;;;7.23;6.53;;;;;;;11.35;57.87;96665.25;5441893;26;20504;-74
2024/04/17 06:55:02;;;;;;;6.13;5.53;;;;;;;11.36;58.01;96674.75;5440313;26;20307;-71
2024/04/17 06:57:28;;;;;;;5.77;5.17;;;;;;;11.28;56.95;96680.03;5437178;26;20235;-71
2024/04/17 06:59:53;;;;;;;5.37;4.87;;;;;;;11.28;56.75;96677.41;5440965;26;20464;-69
2024/04/17 07:02:19;;;;;;;5.83;5.27;;;;;;;11.29;57.03;96673.81;5444037;26;20247;-73
2024/04/17 07:04:44;;;;;;;4.73;4.33;;;;;;;11.27;56.70;96681.88;5412548;26;20760;-73
2024/04/17 07:07:10;;;;;;;6.33;4.70;;;;;;;11.30;56.89;96680.69;5437595;26;20242;-71
2024/04/17 07:09:35;;;;;;;5.63;5.13;;;;;;;11.32;57.36;96678.72;5436840;26;20238;-72
2024/04/17 07:12:01;;;;;;;5.33;4.87;;;;;;;11.34;57.21;96680.19;5429487;26;20227;-70
2024/04/17 07:14:26;;;;;;;4.83;4.43;;;;;;;11.33;57.03;96677.75;5439419;26;20266;-71
2024/04/17 07:16:52;;;;;;;7.70;4.20;;;;;;;11.40;56.79;96686.56;5437188;26;20231;-72
2024/04/17 07:19:19;;;;;;;5.00;4.50;;;;;;;11.40;57.36;96691.00;5436172;26;20231;-71
2024/04/17 07:21:44;;;;;;;4.47;4.07;;;;;;;11.45;57.16;96689.50;5426372;26;20235;-73
2024/04/17 07:24:10;;;;;;;6.70;4.77;;;;;;;11.44;57.02;96692.28;5437812;26;20846;-72
2024/04/17 07:26:35;;;;;;;4.20;3.90;;;;;;;11.45;56.74;96692.13;5430818;26;20239;-72
2024/04/17 07:29:00;;;;;;;5.67;4.40;;;;;;;11.43;56.70;96690.63;5438603;26;20338;-70
2024/04/17 07:31:26;;;;;;;3.77;3.37;;;;;;;11.44;56.80;96690.50;5444055;26;20232;-72
2024/04/17 07:33:51;;;;;;;4.03;3.23;;;;;;;11.41;56.59;96690.81;5441377;26;20267;-71
2024/04/17 07:36:17;;;;;;;3.00;2.80;;;;;;;11.34;56.43;96695.13;5445265;26;20306;-72
2024/04/17 07:38:45;;;;;;;3.30;3.00;;;;;;;11.29;56.18;96700.03;5444977;26;20235;-71
2024/04/17 07:41:10;;;;;;;2.73;2.53;;;;;;;11.31;56.43;96698.06;5436888;26;20281;-71
2024/04/17 07:43:35;;;;;;;3.23;2.93;;;;;;;11.33;57.02;96712.66;5442383;26;21178;-72
2024/04/17 07:46:01;;;;;;;4.03;2.73;;;;;;;11.36;57.05;96706.25;5445631;26;20231;-70
2024/04/17 07:48:29;;;;;;;4.20;2.90;;;;;;;11.25;56.36;96699.56;5443919;26;20231;-73
2024/04/17 07:50:54;;;;;;;2.80;2.50;;;;;;;11.17;56.42;96708.28;5439453;26;20320;-71
2024/04/17 07:53:20;;;;;;;2.93;2.73;;;;;;;11.14;56.96;96703.34;5446320;26;20820;-70
2024/04/17 07:55:45;;;;;;;3.00;2.80;;;;;;;11.11;57.07;96701.06;5439761;26;20239;-72
2024/04/17 07:58:11;;;;;;;3.03;2.83;;;;;;;11.11;57.53;96706.31;5437531;26;20286;-71
2024/04/17 08:00:38;;;;;;;3.00;2.70;;;;;;;11.09;57.55;96703.03;5447419;26;20836;-72
2024/04/17 08:03:04;;;;;;;3.50;2.77;;;;;;;11.16;57.43;96704.03;5431646;26;20286;-69
2024/04/17 08:05:29;;;;;;;3.30;3.00;;;;;;;11.18;56.88;96711.72;5445398;26;21052;-69
2024/04/17 08:07:55;;;;;;;3.20;3.00;;;;;;;11.16;57.54;96711.03;5434607;26;20506;-70
2024/04/17 08:10:20;;;;;;;5.80;3.43;;;;;;;11.16;58.08;96706.63;5437984;26;20282;-71
2024/04/17 08:12:47;;;;;;;3.80;3.50;;;;;;;11.24;57.25;96710.22;5445540;26;20243;-70
2024/04/17 08:15:13;;;;;;;5.43;4.20;;;;;;;11.18;57.38;96709.91;5436770;26;20243;-71
2024/04/17 08:17:39;;;;;;;4.67;4.27;;;;;;;11.26;57.33;96709.09;5441557;26;20513;-71
2024/04/17 08:20:04;;;;;;;4.67;4.23;;;;;;;11.28;57.36;96706.28;5427353;26;20248;-72
2024/04/17 08:22:30;;;;;;;5.80;3.93;;;;;;;11.36;57.97;96719.34;5441460;26;20251;-71
2024/04/17 08:24:55;;;;;;;5.37;4.53;;;;;;;11.40;58.19;96714.63;5432814;26;20407;-72
2024/04/17 08:27:21;;;;;;;4.87;4.47;;;;;;;11.49;57.57;96709.13;5439659;26;20238;-73
2024/04/17 08:29:46;;;;;;;7.17;5.10;;;;;;;11.56;57.92;96705.84;5446686;26;20239;-71
2024/04/17 08:32:12;;;;;;;5.63;5.00;;;;;;;11.64;57.90;96708.44;5447728;26;20340;-72
2024/04/17 08:34:37;;;;;;;6.97;6.27;;;;;;;11.78;57.92;96706.91;5447539;26;20239;-72
2024/04/17 08:37:02;;;;;;;8.20;5.60;;;;;;;11.98;58.17;96713.38;5415392;26;20235;-70
2024/04/17 08:39:28;;;;;;;6.47;5.20;;;;;;;12.22;58.12;96710.78;5447429;26;20289;-71
2024/04/17 08:42:05;;;;;;;7.10;6.13;;;;;;;12.51;58.30;96704.81;5445802;26;20278;-73
2024/04/17 08:44:35;;;;;;;8.30;6.37;;;;;;;12.80;58.43;96703.22;5441790;26;20235;-71
2024/04/17 08:47:02;;;;;;;6.40;5.73;;;;;;;13.03;57.39;96707.63;5434772;26;21110;-71
2024/04/17 08:49:29;;;;;;;8.67;6.83;;;;;;;13.14;56.08;96714.25;5445728;26;20835;-70
2024/04/17 08:51:55;;;;;;;6.20;5.03;;;;;;;13.21;56.02;96709.91;5446453;26;20528;-71
2024/04/17 08:54:21;;;;;;;7.13;5.50;;;;;;;13.25;55.29;96711.16;5447466;26;20465;-70
2024/04/17 08:56:46;;;;;;;7.63;6.20;;;;;;;13.30;54.96;96713.25;5446128;26;21195;-70
2024/04/17 08:59:12;;;;;;;5.83;5.23;;;;;;;13.35;54.00;96710.91;5444602;26;20228;-74
2024/04/17 09:01:38;;;;;;;7.03;6.33;;;;;;;13.33;53.66;96707.63;5447370;26;20385;-72
2024/04/17 09:04:04;;;;;;;5.87;5.10;;;;;;;13.30;52.91;96714.09;5458736;26;20231;-69
2024/04/17 09:06:29;;;;;;;7.37;5.23;;;;;;;13.30;53.48;96719.34;5446392;26;20457;-69
2024/04/17 09:08:56;;;;;;;7.33;5.13;;;;;;;13.23;53.92;96712.34;5446358;26;20804;-71
2024/04/17 09:11:22;;;;;;;5.77;5.23;;;;;;;13.09;53.65;96724.53;5444764;26;20277;-71
2024/04/17 09:13:48;;;;;;;5.13;4.63;;;;;;;12.96;52.89;96731.22;5446457;26;20508;-71
2024/04/17 09:16:13;;;;;;;5.20;3.67;;;;;;;12.80;53.54;96733.97;5457886;26;21067;-71
2024/04/17 09:18:40;;;;;;;6.30;5.47;;;;;;;12.64;53.12;96734.94;5445774;26;20465;-71
2024/04/17 09:21:09;;;;;;;5.10;4.60;;;;;;;12.51;52.37;96738.97;5446208;26;20364;-71
2024/04/17 09:23:35;;;;;;;7.80;4.70;;;;;;;12.40;52.69;96742.81;5446208;26;20457;-72
2024/04/17 09:26:19;;;;;;;6.60;4.70;;;;;;;12.29;53.07;96749.28;5446572;26;20453;-71
2024/04/17 09:28:45;;;;;;;4.83;4.33;;;;;;;12.20;52.73;96744.28;5440621;26;20572;-70
2024/04/17 09:31:11;;;;;;;5.50;4.10;;;;;;;12.15;53.42;96752.69;5446979;26;20503;-71
2024/04/17 09:33:44;;;;;;;5.50;4.93;;;;;;;12.11;54.35;96752.19;5431472;26;20236;-70
2024/04/17 09:36:10;;;;;;;7.33;5.30;;;;;;;12.13;54.29;96752.84;5446942;26;20513;-69
2024/04/17 09:38:35;;;;;;;7.10;5.10;;;;;;;12.19;54.37;96753.97;5444580;26;20457;-72
2024/04/17 09:41:01;;;;;;;6.07;5.13;;;;;;;12.21;53.94;96753.81;5414487;26;20286;-73
2024/04/17 09:43:28;;;;;;;9.17;5.67;;;;;;;12.23;54.78;96754.44;5445164;26;20236;-70
2024/04/17 09:46:01;;;;;;;5.93;5.10;;;;;;;12.19;54.07;96761.03;5445651;26;20335;-70
2024/04/17 09:48:28;;;;;;;6.00;5.40;;;;;;;12.15;54.60;96763.19;5446966;26;20529;-69
2024/04/17 09:51:04;;;;;;;7.33;5.50;;;;;;;12.17;54.14;96761.19;5414232;26;20530;-71
2024/04/17 09:53:34;;;;;;;8.93;5.63;;;;;;;12.16;54.15;96753.50;5438849;26;20476;-71
2024/04/17 09:56:00;;;;;;;7.90;5.60;;;;;;;12.18;54.45;96748.88;5445406;26;20515;-72
2024/04/17 09:58:32;;;;;;;9.70;5.80;;;;;;;12.21;54.51;96759.06;5445949;26;20457;-71
2024/04/17 10:01:07;;;;;;;10.50;6.13;;;;;;;12.21;55.16;96751.97;5444481;26;20235;-71
2024/04/17 10:03:33;;;;;;;6.37;5.73;;;;;;;12.28;55.31;96755.56;5438408;26;20449;-72
2024/04/17 10:06:00;;;;;;;12.80;10.53;;;;;;;12.31;55.46;96751.75;5445294;26;20457;-72
2024/04/17 10:08:29;;;;;;;33.00;23.20;;;;;;;12.29;55.84;96762.44;5445914;26;20449;-73
2024/04/17 10:10:54;;;;;;;11.37;8.50;;;;;;;12.31;55.20;96749.13;5444344;26;20480;-71
2024/04/17 10:13:22;;;;;;;33.80;24.13;;;;;;;12.41;55.67;96762.06;5414459;26;20460;-71
2024/04/17 10:15:47;;;;;;;15.30;13.40;;;;;;;12.49;55.63;96753.28;5445699;26;20886;-70
2024/04/17 10:18:13;;;;;;;13.83;10.90;;;;;;;12.59;55.84;96759.13;5441704;26;20468;-72
2024/04/17 10:20:39;;;;;;;14.53;10.17;;;;;;;12.63;55.22;96765.66;5446848;26;20293;-71
2024/04/17 10:23:05;;;;;;;11.10;7.80;;;;;;;12.56;54.04;96764.72;5444815;26;20449;-71
2024/04/17 10:25:32;;;;;;;16.63;12.20;;;;;;;12.67;54.47;96758.22;5446261;26;20348;-72
2024/04/17 10:28:02;;;;;;;11.93;10.27;;;;;;;12.78;53.60;96762.25;5422519;26;20461;-71
2024/04/17 10:30:27;;;;;;;9.33;7.20;;;;;;;12.81;51.87;96749.56;5424783;26;20524;-71
2024/04/17 10:32:52;;;;;;;12.30;9.90;;;;;;;12.91;52.30;96751.97;5445703;26;20456;-71
2024/04/17 10:35:19;;;;;;;17.07;13.80;;;;;;;13.13;52.98;96752.06;5438769;26;20287;-69
2024/04/17 10:37:45;;;;;;;28.00;21.10;;;;;;;13.36;53.09;96750.19;5443501;26;20243;-70
2024/04/17 10:40:11;;;;;;;19.90;14.00;;;;;;;13.57;52.68;96750.50;5445555;26;21206;-70
2024/04/17 10:42:37;;;;;;;16.03;11.77;;;;;;;13.74;52.61;96753.75;5445790;26;20239;-70
2024/04/17 10:45:03;;;;;;;10.93;8.60;;;;;;;13.95;52.38;96753.00;5445536;26;20544;-71
2024/04/17 10:47:28;;;;;;;22.13;8.13;;;;;;;14.17;52.56;96751.22;5413787;26;20533;-70
2024/04/17 10:50:01;;;;;;;11.60;9.10;;;;;;;14.35;51.99;96750.00;5444926;26;20461;-70
2024/04/17 10:52:31;;;;;;;12.10;7.90;;;;;;;14.48;51.13;96747.50;5445267;26;20235;-71
2024/04/17 10:54:59;;;;;;;10.33;8.10;;;;;;;14.44;50.94;96744.41;5445281;26;20471;-70
2024/04/17 10:57:27;;;;;;;10.53;7.43;;;;;;;14.38;49.82;96745.16;5444589;26;21135;-70
2024/04/17 10:59:53;;;;;;;8.07;6.70;;;;;;;14.25;48.95;96743.19;5444499;26;20532;-70
2024/04/17 11:02:19;;;;;;;8.30;6.90;;;;;;;14.16;49.79;96739.03;5445758;26;20811;-70
2024/04/17 11:04:45;;;;;;;8.60;6.90;;;;;;;14.02;50.07;96742.53;5444579;26;20231;-70
2024/04/17 11:07:10;;;;;;;11.70;6.90;;;;;;;13.84;50.88;96746.41;5443054;26;20453;-72
2024/04/17 11:09:35;;;;;;;9.30;6.83;;;;;;;13.69;51.17;96742.97;5442944;26;20293;-70
2024/04/17 11:12:02;;;;;;;11.13;6.57;;;;;;;13.60;50.99;96755.41;5445319;26;20235;-69
2024/04/17 11:14:27;;;;;;;9.03;6.63;;;;;;;13.66;51.21;96744.16;5447122;26;20336;-71
2024/04/17 11:16:55;;;;;;;10.87;7.17;;;;;;;13.82;51.35;96748.41;5447978;26;20460;-71
2024/04/17 11:19:20;;;;;;;10.20;6.87;;;;;;;14.12;51.89;96740.41;5446913;26;20277;-71
2024/04/17 11:21:49;;;;;;;10.20;6.13;;;;;;;14.40;51.18;96740.53;5447213;26;20453;-70
2024/04/17 11:24:18;;;;;;;8.20;5.80;;;;;;;14.56;49.61;96734.19;5433607;26;20299;-71
2024/04/17 11:26:44;;;;;;;6.30;4.90;;;;;;;14.73;48.48;96723.41;5448312;26;20842;-72